WMKJ METAR and TAF | Updated Today

WMKJ METAR

Senai International Airport

Observation time: 17 min. ago

WMKJ 010900Z 27004KT 210V350 9000 FEW016CB SCT018 27/24 Q1008

Need help? Read our tutorial on how to read METARs or read the parsed version below.

Senai International Airport (WMKJ) METAR

  • Weather conditions on Sat, 01 Oct 2022 09:00:00 +0000 (17 min. ago):
  • Present conditions: Dry
  • Clouds: A few at 488 meters, cumulonimbus; scattered at 549 meters
  • Visibility: 9000 meters
  • Wind: 270 degrees at 4 knots
  • Temperature: 27 celsius
  • Dew point: 24 celsius
  • Pressure: 1008 millibars
  • Remarks: None


Useful to know...

WMKJ TAF

Senai International Airport

TAF WMKJ 010500Z 0106/0206 VRB02KT 9999 FEW018 TEMPO 0108/0113 4000 TSRA FEW017CB
Observation time: 4:17 hr. ago
Need help? Read our tutorial on how to read TAFs or read the parsed version below.

Parsed version of TAF for Senai International Airport (WMKJ)

  • From 01 October at 06:00 UTC, to day 02 of the month at 06:00 UTC
  • Clouds: A few at 549 meters
  • Visibility: Greater than 10 km
  • Wind: Variable at 2
  • Expected to arise temporarily, from 01 October at 08:00 UTC, to day 01 of the month at 13:00 UTC
  • Clouds: A few at 518 meters, cumulonimbus
  • Visibility: 4000 meters
  • Other: Thunderstorms rain